Eftichia — C6ZI4 — position and weather

sailwx.info

Track history (hours):
 
Tides and Currents Weather Stations Pressure Air Temp Water Temp Dewpoint Dewpoint Depression Visibility Wind Speed Wind Dir Waves Ship Positions

Eftichia

Last reported at 2015-May-22 09:33 UTC. Time now 2015-May-22 09:59 UTC.
Position N 50°31' E 000°06'.

Length 181 m; draft 6.1 m.

Type: Cargo ship. MMSI: 311033882.

Date/timePositionNaut miles runAvg speedWind from/ knotsBaromVisibWave heightAir tempDewpointWater temp
2015-May-22 09:33N 50°31' E 000°06'1212.0
2015-May-22 08:33N 50°34' E 000°24'1313.1
2015-May-22 07:34N 50°40' E 000°42'1313.3
2015-May-22 06:33N 50°48' E 000°59'1312.7
2015-May-22 05:34N 50°56' E 001°14'1111.1
2015-May-22 04:33N 51°04' E 001°27'10 9.5
2015-May-22 03:33N 51°10' E 001°39'9 9.4
2015-May-22 02:33N 51°17' E 001°49'1010.3
2015-May-22 01:33N 51°25' E 001°59'1111.2
2015-May-22 00:33N 51°21' E 002°15'1212.2
2015-May-21 23:33N 51°22' E 002°35'1111.5
2015-May-21 22:33N 51°22' E 002°53'1211.7
2015-May-21 21:33N 51°24' E 003°11'1312.7
2015-May-21 20:33N 51°25' E 003°32'8 8.1
2015-May-21 19:33N 51°23' E 003°44'4 4.3
2015-May-21 18:33N 51°20' E 003°49'3 2.9
2015-May-21 17:34N 51°17' E 003°50'1 0.5
2015-May-21 16:30N 51°16' E 003°51'0 0.0
2015-May-21 15:23N 51°16' E 003°51'0 0.0
2015-May-21 14:32N 51°16' E 003°51'0 0.0
2015-May-21 13:32N 51°16' E 003°51'0 0.0
2015-May-21 12:32N 51°16' E 003°51'0 0.0
2015-May-21 11:32N 51°16' E 003°51'0 0.0
2015-May-21 10:32N 51°16' E 003°51'0 0.0
2015-May-21 09:32N 51°16' E 003°51'0 0.0
2015-May-21 08:32N 51°16' E 003°51'0 0.0
2015-May-21 07:32N 51°16' E 003°51'0 0.0
2015-May-21 06:32N 51°16' E 003°51'0 0.0
2015-May-21 05:32N 51°16' E 003°51'0 0.0
2015-May-21 04:32N 51°16' E 003°51'0 0.0
2015-May-21 03:32N 51°16' E 003°51'0 0.0
2015-May-21 02:32N 51°16' E 003°51'0 0.0
2015-May-21 01:32N 51°16' E 003°51'0 0.0
2015-May-21 00:32N 51°16' E 003°51'0 0.0
2015-May-20 23:32N 51°16' E 003°51'0 0.0
2015-May-20 22:32N 51°16' E 003°51'0 0.0
2015-May-20 21:32N 51°16' E 003°51'0 0.0
2015-May-20 20:32N 51°16' E 003°51'0 0.0
2015-May-20 19:32N 51°16' E 003°51'0 0.0
2015-May-20 18:32N 51°16' E 003°51'0 0.0
2015-May-20 17:32N 51°16' E 003°51'0 0.0
2015-May-20 16:32N 51°16' E 003°51'0 0.0
2015-May-20 15:32N 51°16' E 003°51'0 0.0
2015-May-20 14:32N 51°16' E 003°51'0 0.0
2015-May-20 13:32N 51°16' E 003°51'0 0.0
2015-May-20 12:29N 51°16' E 003°51'0 0.0
2015-May-20 11:32N 51°16' E 003°51'0 0.0
2015-May-20 10:32N 51°16' E 003°51'0 0.0
2015-May-20 09:32N 51°16' E 003°51'0 0.0
2015-May-20 08:32N 51°16' E 003°51'0 0.0
2015-May-20 07:32N 51°16' E 003°51'0 0.0
2015-May-20 06:32N 51°16' E 003°51'0 0.0
2015-May-20 05:32N 51°16' E 003°51'0 0.0
2015-May-20 04:32N 51°16' E 003°51'0 0.0
2015-May-20 03:32N 51°16' E 003°51'0 0.0
2015-May-20 02:32N 51°16' E 003°51'0 0.0
2015-May-20 01:32N 51°16' E 003°51'0 0.0
2015-May-20 00:32N 51°16' E 003°51'0 0.0
2015-May-19 23:32N 51°16' E 003°51'0 0.0
2015-May-19 22:32N 51°16' E 003°51'0 0.0
2015-May-19 21:29N 51°16' E 003°51'0 0.0
2015-May-19 20:32N 51°16' E 003°51'0 0.0
2015-May-19 19:32N 51°16' E 003°51'0 0.0
2015-May-19 18:32N 51°16' E 003°51'0 0.0
2015-May-19 17:32N 51°16' E 003°51'0 0.0
2015-May-19 16:32N 51°16' E 003°51'0 0.0
2015-May-19 15:32N 51°16' E 003°51'0 0.0
2015-May-19 14:32N 51°16' E 003°51'0 0.0
2015-May-19 13:32N 51°16' E 003°51'0 0.0
2015-May-19 12:32N 51°16' E 003°51'0 0.1
2015-May-19 11:33N 51°16' E 003°51'3 2.7
2015-May-19 10:33N 51°19' E 003°50'1 0.8
2015-May-19 09:33N 51°20' E 003°49'1 0.6
2015-May-19 08:34N 51°20' E 003°49'4 4.2
2015-May-19 07:34N 51°23' E 003°43'7 6.9
2015-May-19 06:33N 51°27' E 003°34'9 9.3
2015-May-19 05:33N 51°34' E 003°25'1110.3
2015-May-19 04:29N 51°43' E 003°14'7 7.5
2015-May-19 03:33N 51°49' E 003°20'2 2.1
2015-May-19 02:31N 51°49' E 003°23'0 0.0
2015-May-19 01:31N 51°49' E 003°24'0 0.0
2015-May-19 00:22N 51°49' E 003°24'0 0.1
2015-May-18 23:31N 51°49' E 003°24'0 0.2
2015-May-18 22:25N 51°49' E 003°23'0 0.0
2015-May-18 20:22N 51°49' E 003°23'0 0.1
2015-May-18 18:28N 51°49' E 003°24'0 0.0
2015-May-18 17:19N 51°49' E 003°24'0 0.0
2015-May-18 16:16N 51°50' E 003°24'0 0.0
2015-May-18 15:07N 51°50' E 003°24'0 0.0
2015-May-18 14:25N 51°50' E 003°23'0 0.0
2015-May-18 13:19N 51°50' E 003°23'0 0.0
2015-May-18 12:25N 51°50' E 003°23'0 0.1
2015-May-18 11:28N 51°49' E 003°23'0 0.1
2015-May-18 09:10N 51°49' E 003°23'0 0.0
2015-May-18 08:25N 51°49' E 003°23'0 0.1
2015-May-18 06:31N 51°49' E 003°23'0 0.0
2015-May-18 05:22N 51°49' E 003°23'0 0.0
2015-May-18 04:31N 51°49' E 003°23'0 0.0
2015-May-18 03:28N 51°49' E 003°23'0 0.0
2015-May-18 02:19N 51°49' E 003°23'0 0.0
2015-May-18 01:28N 51°49' E 003°23'0 0.0
2015-May-17 23:31N 51°49' E 003°23'0 0.2
2015-May-17 22:28N 51°49' E 003°23'0 0.1
2015-May-17 21:07N 51°49' E 003°23'0 0.0
2015-May-17 20:31N 51°49' E 003°23'0 0.0
2015-May-17 19:28N 51°49' E 003°23'0 0.1
2015-May-17 18:31N 51°49' E 003°23'0 0.2
2015-May-17 17:28N 51°49' E 003°23'0 0.0
2015-May-17 16:28N 51°49' E 003°23'0 0.0
2015-May-17 15:31N 51°49' E 003°23'0 0.0
2015-May-17 14:07N 51°49' E 003°23'0 0.0
2015-May-17 12:25N 51°49' E 003°23'0 0.1
2015-May-17 11:22N 51°49' E 003°23'0 0.1
2015-May-17 10:19N 51°49' E 003°23'0 0.1
2015-May-17 09:31N 51°49' E 003°23'0 0.0
2015-May-17 08:10N 51°49' E 003°23'0 0.0
2015-May-17 07:28N 51°49' E 003°23'0 0.0
2015-May-17 06:13N 51°49' E 003°23'0 0.1
2015-May-17 05:25N 51°49' E 003°23'0 0.2
2015-May-17 04:31N 51°49' E 003°23'0 0.0
2015-May-17 03:28N 51°49' E 003°23'0 0.0
2015-May-17 02:31N 51°49' E 003°23'0 0.0
2015-May-17 01:07N 51°49' E 003°23'0 0.0
2015-May-17 00:31N 51°49' E 003°23'0 0.0
2015-May-16 23:25N 51°49' E 003°23'0 0.1
2015-May-16 22:25N 51°49' E 003°23'0 0.1
2015-May-16 21:28N 51°49' E 003°23'0 0.0
2015-May-16 20:25N 51°49' E 003°23'0 0.0
2015-May-16 18:22N 51°49' E 003°23'0 0.0
2015-May-16 17:16N 51°49' E 003°23'0 0.2
2015-May-16 16:28N 51°49' E 003°23'0 0.1
2015-May-16 15:13N 51°49' E 003°23'0 0.0
2015-May-16 14:28N 51°49' E 003°23'0 0.0
2015-May-16 11:13N 51°49' E 003°23'0 0.0
2015-May-16 10:28N 51°49' E 003°23'0 0.2
2015-May-16 09:29N 51°49' E 003°23'0 0.0
2015-May-16 08:19N 51°49' E 003°23'0 0.1
2015-May-16 07:31N 51°49' E 003°23'0 0.0
2015-May-16 06:25N 51°49' E 003°23'0 0.1
2015-May-16 04:16N 51°49' E 003°23'0 0.0
2015-May-16 03:16N 51°49' E 003°23'0 0.0
2015-May-16 02:16N 51°49' E 003°23'0 0.0
2015-May-16 01:19N 51°49' E 003°23'0 0.0
2015-May-16 00:26N 51°49' E 003°23'0 0.0
2015-May-15 23:20N 51°49' E 003°23'0 0.0
2015-May-15 22:31N 51°49' E 003°23'0 0.2
2015-May-15 21:23N 51°49' E 003°23'0 0.1
2015-May-15 20:19N 51°49' E 003°23'0 0.0
2015-May-15 19:28N 51°49' E 003°23'0 0.0
2015-May-15 18:22N 51°49' E 003°23'0 0.1
2015-May-15 17:25N 51°49' E 003°23'0 0.1
2015-May-15 16:16N 51°49' E 003°23'0 0.0
2015-May-15 15:28N 51°49' E 003°23'0 0.2
2015-May-15 14:31N 51°49' E 003°23'0 0.0
2015-May-15 13:28N 51°49' E 003°23'0 0.0
2015-May-15 11:25N 51°49' E 003°23'0 0.1
2015-May-15 10:19N 51°49' E 003°23'0 0.1
2015-May-15 09:13N 51°49' E 003°23'0 0.0
2015-May-15 08:31N 51°49' E 003°23'0 0.0
2015-May-15 07:28N 51°49' E 003°23'0 0.0
2015-May-15 06:31N 51°49' E 003°23'0 0.0
2015-May-15 05:28N 51°49' E 003°23'0 0.0
2015-May-15 04:25N 51°49' E 003°23'0 0.0
2015-May-15 03:28N 51°49' E 003°23'0 0.0
2015-May-15 02:28N 51°49' E 003°23'0 0.1
2015-May-15 00:07N 51°49' E 003°23'0 0.0
2015-May-14 23:14N 51°49' E 003°23'0 0.1
2015-May-14 22:16N 51°49' E 003°23'0 0.2
2015-May-14 21:10N 51°49' E 003°23'0 0.0
2015-May-14 19:25N 51°49' E 003°23'0 0.0
2015-May-14 17:19N 51°49' E 003°23'0 0.0
2015-May-14 16:31N 51°49' E 003°23'0 0.0
2015-May-14 14:28N 51°49' E 003°23'0 0.2
2015-May-14 13:25N 51°49' E 003°23'0 0.1
2015-May-14 12:25N 51°49' E 003°23'0 0.0
2015-May-14 09:31N 51°49' E 003°23'0 0.2
2015-May-14 08:22N 51°49' E 003°23'0 0.0
2015-May-14 07:31N 51°49' E 003°23'0 0.0
2015-May-14 04:22N 51°49' E 003°23'0 0.0
2015-May-14 03:25N 51°49' E 003°23'0 0.0
2015-May-14 02:31N 51°49' E 003°23'0 0.0
2015-May-14 01:28N 51°49' E 003°23'0 0.1
2015-May-14 00:31N 51°49' E 003°23'5 5.0
2015-May-13 23:32N 51°54' E 003°20'1211.1
2015-May-13 22:26N 52°06' E 003°21'1512.1
2015-May-13 21:13N 52°21' E 003°24'2412.7
2015-May-13 19:22N 52°43' E 003°38'1514.0
2015-May-13 18:18N 52°54' E 003°55'1114.3
2015-May-13 17:33N 53°01' E 004°07'1613.8
2015-May-13 16:24N 53°12' E 004°27'1613.5
2015-May-13 15:13N 53°27' E 004°35'913.0
2015-May-13 14:29N 53°36' E 004°40'1212.9
2015-May-13 13:32N 53°48' E 004°46'1212.3
2015-May-13 12:33N 53°60' E 004°52'1212.2
2015-May-13 11:33N 54°11' E 004°58'27711.1
2015-May-12 10:27N 57°49' E 010°06'1112.2
2015-May-12 09:33N 57°50' E 010°26'  
Track history (hours):
 
Tides and Currents Weather Stations Pressure Air Temp Water Temp Dewpoint Dewpoint Depression Visibility Wind Speed Wind Dir Waves Ship Positions

Eftichia

Last reported at 2015-May-22 09:33 UTC. Time now 2015-May-22 09:59 UTC.
Position N 50°31' E 000°06'.

Length 181 m; draft 6.1 m.

Type: Cargo ship. MMSI: 311033882.

Date/timePositionNaut miles runAvg speedWind from/ knotsBaromVisibWave heightAir tempDewpointWater temp
2015-May-22 09:33N 50°31' E 000°06'1212.0
2015-May-22 08:33N 50°34' E 000°24'1313.1
2015-May-22 07:34N 50°40' E 000°42'1313.3
2015-May-22 06:33N 50°48' E 000°59'1312.7
2015-May-22 05:34N 50°56' E 001°14'1111.1
2015-May-22 04:33N 51°04' E 001°27'10 9.5
2015-May-22 03:33N 51°10' E 001°39'9 9.4
2015-May-22 02:33N 51°17' E 001°49'1010.3
2015-May-22 01:33N 51°25' E 001°59'1111.2
2015-May-22 00:33N 51°21' E 002°15'1212.2
2015-May-21 23:33N 51°22' E 002°35'1111.5
2015-May-21 22:33N 51°22' E 002°53'1211.7
2015-May-21 21:33N 51°24' E 003°11'1312.7
2015-May-21 20:33N 51°25' E 003°32'8 8.1
2015-May-21 19:33N 51°23' E 003°44'4 4.3
2015-May-21 18:33N 51°20' E 003°49'3 2.9
2015-May-21 17:34N 51°17' E 003°50'1 0.5
2015-May-21 16:30N 51°16' E 003°51'0 0.0
2015-May-21 15:23N 51°16' E 003°51'0 0.0
2015-May-21 14:32N 51°16' E 003°51'0 0.0
2015-May-21 13:32N 51°16' E 003°51'0 0.0
2015-May-21 12:32N 51°16' E 003°51'0 0.0
2015-May-21 11:32N 51°16' E 003°51'0 0.0
2015-May-21 10:32N 51°16' E 003°51'0 0.0
2015-May-21 09:32N 51°16' E 003°51'0 0.0
2015-May-21 08:32N 51°16' E 003°51'0 0.0
2015-May-21 07:32N 51°16' E 003°51'0 0.0
2015-May-21 06:32N 51°16' E 003°51'0 0.0
2015-May-21 05:32N 51°16' E 003°51'0 0.0
2015-May-21 04:32N 51°16' E 003°51'0 0.0
2015-May-21 03:32N 51°16' E 003°51'0 0.0
2015-May-21 02:32N 51°16' E 003°51'0 0.0
2015-May-21 01:32N 51°16' E 003°51'0 0.0
2015-May-21 00:32N 51°16' E 003°51'0 0.0
2015-May-20 23:32N 51°16' E 003°51'0 0.0
2015-May-20 22:32N 51°16' E 003°51'0 0.0
2015-May-20 21:32N 51°16' E 003°51'0 0.0
2015-May-20 20:32N 51°16' E 003°51'0 0.0
2015-May-20 19:32N 51°16' E 003°51'0 0.0
2015-May-20 18:32N 51°16' E 003°51'0 0.0
2015-May-20 17:32N 51°16' E 003°51'0 0.0
2015-May-20 16:32N 51°16' E 003°51'0 0.0
2015-May-20 15:32N 51°16' E 003°51'0 0.0
2015-May-20 14:32N 51°16' E 003°51'0 0.0
2015-May-20 13:32N 51°16' E 003°51'0 0.0
2015-May-20 12:29N 51°16' E 003°51'0 0.0
2015-May-20 11:32N 51°16' E 003°51'0 0.0
2015-May-20 10:32N 51°16' E 003°51'0 0.0
2015-May-20 09:32N 51°16' E 003°51'0 0.0
2015-May-20 08:32N 51°16' E 003°51'0 0.0
2015-May-20 07:32N 51°16' E 003°51'0 0.0
2015-May-20 06:32N 51°16' E 003°51'0 0.0
2015-May-20 05:32N 51°16' E 003°51'0 0.0
2015-May-20 04:32N 51°16' E 003°51'0 0.0
2015-May-20 03:32N 51°16' E 003°51'0 0.0
2015-May-20 02:32N 51°16' E 003°51'0 0.0
2015-May-20 01:32N 51°16' E 003°51'0 0.0
2015-May-20 00:32N 51°16' E 003°51'0 0.0
2015-May-19 23:32N 51°16' E 003°51'0 0.0
2015-May-19 22:32N 51°16' E 003°51'0 0.0
2015-May-19 21:29N 51°16' E 003°51'0 0.0
2015-May-19 20:32N 51°16' E 003°51'0 0.0
2015-May-19 19:32N 51°16' E 003°51'0 0.0
2015-May-19 18:32N 51°16' E 003°51'0 0.0
2015-May-19 17:32N 51°16' E 003°51'0 0.0
2015-May-19 16:32N 51°16' E 003°51'0 0.0
2015-May-19 15:32N 51°16' E 003°51'0 0.0
2015-May-19 14:32N 51°16' E 003°51'0 0.0
2015-May-19 13:32N 51°16' E 003°51'0 0.0
2015-May-19 12:32N 51°16' E 003°51'0 0.1
2015-May-19 11:33N 51°16' E 003°51'3 2.7
2015-May-19 10:33N 51°19' E 003°50'1 0.8
2015-May-19 09:33N 51°20' E 003°49'1 0.6
2015-May-19 08:34N 51°20' E 003°49'4 4.2
2015-May-19 07:34N 51°23' E 003°43'7 6.9
2015-May-19 06:33N 51°27' E 003°34'9 9.3
2015-May-19 05:33N 51°34' E 003°25'1110.3
2015-May-19 04:29N 51°43' E 003°14'7 7.5
2015-May-19 03:33N 51°49' E 003°20'2 2.1
2015-May-19 02:31N 51°49' E 003°23'0 0.0
2015-May-19 01:31N 51°49' E 003°24'0 0.0
2015-May-19 00:22N 51°49' E 003°24'0 0.1
2015-May-18 23:31N 51°49' E 003°24'0 0.2
2015-May-18 22:25N 51°49' E 003°23'0 0.0
2015-May-18 20:22N 51°49' E 003°23'0 0.1
2015-May-18 18:28N 51°49' E 003°24'0 0.0
2015-May-18 17:19N 51°49' E 003°24'0 0.0
2015-May-18 16:16N 51°50' E 003°24'0 0.0
2015-May-18 15:07N 51°50' E 003°24'0 0.0
2015-May-18 14:25N 51°50' E 003°23'0 0.0
2015-May-18 13:19N 51°50' E 003°23'0 0.0
2015-May-18 12:25N 51°50' E 003°23'0 0.1
2015-May-18 11:28N 51°49' E 003°23'0 0.1
2015-May-18 09:10N 51°49' E 003°23'0 0.0
2015-May-18 08:25N 51°49' E 003°23'0 0.1
2015-May-18 06:31N 51°49' E 003°23'0 0.0
2015-May-18 05:22N 51°49' E 003°23'0 0.0
2015-May-18 04:31N 51°49' E 003°23'0 0.0
2015-May-18 03:28N 51°49' E 003°23'0 0.0
2015-May-18 02:19N 51°49' E 003°23'0 0.0
2015-May-18 01:28N 51°49' E 003°23'0 0.0
2015-May-17 23:31N 51°49' E 003°23'0 0.2
2015-May-17 22:28N 51°49' E 003°23'0 0.1
2015-May-17 21:07N 51°49' E 003°23'0 0.0
2015-May-17 20:31N 51°49' E 003°23'0 0.0
2015-May-17 19:28N 51°49' E 003°23'0 0.1
2015-May-17 18:31N 51°49' E 003°23'0 0.2
2015-May-17 17:28N 51°49' E 003°23'0 0.0
2015-May-17 16:28N 51°49' E 003°23'0 0.0
2015-May-17 15:31N 51°49' E 003°23'0 0.0
2015-May-17 14:07N 51°49' E 003°23'0 0.0
2015-May-17 12:25N 51°49' E 003°23'0 0.1
2015-May-17 11:22N 51°49' E 003°23'0 0.1
2015-May-17 10:19N 51°49' E 003°23'0 0.1
2015-May-17 09:31N 51°49' E 003°23'0 0.0
2015-May-17 08:10N 51°49' E 003°23'0 0.0
2015-May-17 07:28N 51°49' E 003°23'0 0.0
2015-May-17 06:13N 51°49' E 003°23'0 0.1
2015-May-17 05:25N 51°49' E 003°23'0 0.2
2015-May-17 04:31N 51°49' E 003°23'0 0.0
2015-May-17 03:28N 51°49' E 003°23'0 0.0
2015-May-17 02:31N 51°49' E 003°23'0 0.0
2015-May-17 01:07N 51°49' E 003°23'0 0.0
2015-May-17 00:31N 51°49' E 003°23'0 0.0
2015-May-16 23:25N 51°49' E 003°23'0 0.1
2015-May-16 22:25N 51°49' E 003°23'0 0.1
2015-May-16 21:28N 51°49' E 003°23'0 0.0
2015-May-16 20:25N 51°49' E 003°23'0 0.0
2015-May-16 18:22N 51°49' E 003°23'0 0.0
2015-May-16 17:16N 51°49' E 003°23'0 0.2
2015-May-16 16:28N 51°49' E 003°23'0 0.1
2015-May-16 15:13N 51°49' E 003°23'0 0.0
2015-May-16 14:28N 51°49' E 003°23'0 0.0
2015-May-16 11:13N 51°49' E 003°23'0 0.0
2015-May-16 10:28N 51°49' E 003°23'0 0.2
2015-May-16 09:29N 51°49' E 003°23'0 0.0
2015-May-16 08:19N 51°49' E 003°23'0 0.1
2015-May-16 07:31N 51°49' E 003°23'0 0.0
2015-May-16 06:25N 51°49' E 003°23'0 0.1
2015-May-16 04:16N 51°49' E 003°23'0 0.0
2015-May-16 03:16N 51°49' E 003°23'0 0.0
2015-May-16 02:16N 51°49' E 003°23'0 0.0
2015-May-16 01:19N 51°49' E 003°23'0 0.0
2015-May-16 00:26N 51°49' E 003°23'0 0.0
2015-May-15 23:20N 51°49' E 003°23'0 0.0
2015-May-15 22:31N 51°49' E 003°23'0 0.2
2015-May-15 21:23N 51°49' E 003°23'0 0.1
2015-May-15 20:19N 51°49' E 003°23'0 0.0
2015-May-15 19:28N 51°49' E 003°23'0 0.0
2015-May-15 18:22N 51°49' E 003°23'0 0.1
2015-May-15 17:25N 51°49' E 003°23'0 0.1
2015-May-15 16:16N 51°49' E 003°23'0 0.0
2015-May-15 15:28N 51°49' E 003°23'0 0.2
2015-May-15 14:31N 51°49' E 003°23'0 0.0
2015-May-15 13:28N 51°49' E 003°23'0 0.0
2015-May-15 11:25N 51°49' E 003°23'0 0.1
2015-May-15 10:19N 51°49' E 003°23'0 0.1
2015-May-15 09:13N 51°49' E 003°23'0 0.0
2015-May-15 08:31N 51°49' E 003°23'0 0.0
2015-May-15 07:28N 51°49' E 003°23'0 0.0
2015-May-15 06:31N 51°49' E 003°23'0 0.0
2015-May-15 05:28N 51°49' E 003°23'0 0.0
2015-May-15 04:25N 51°49' E 003°23'0 0.0
2015-May-15 03:28N 51°49' E 003°23'0 0.0
2015-May-15 02:28N 51°49' E 003°23'0 0.1
2015-May-15 00:07N 51°49' E 003°23'0 0.0
2015-May-14 23:14N 51°49' E 003°23'0 0.1
2015-May-14 22:16N 51°49' E 003°23'0 0.2
2015-May-14 21:10N 51°49' E 003°23'0 0.0
2015-May-14 19:25N 51°49' E 003°23'0 0.0
2015-May-14 17:19N 51°49' E 003°23'0 0.0
2015-May-14 16:31N 51°49' E 003°23'0 0.0
2015-May-14 14:28N 51°49' E 003°23'0 0.2
2015-May-14 13:25N 51°49' E 003°23'0 0.1
2015-May-14 12:25N 51°49' E 003°23'0 0.0
2015-May-14 09:31N 51°49' E 003°23'0 0.2
2015-May-14 08:22N 51°49' E 003°23'0 0.0
2015-May-14 07:31N 51°49' E 003°23'0 0.0
2015-May-14 04:22N 51°49' E 003°23'0 0.0
2015-May-14 03:25N 51°49' E 003°23'0 0.0
2015-May-14 02:31N 51°49' E 003°23'0 0.0
2015-May-14 01:28N 51°49' E 003°23'0 0.1
2015-May-14 00:31N 51°49' E 003°23'5 5.0
2015-May-13 23:32N 51°54' E 003°20'1211.1
2015-May-13 22:26N 52°06' E 003°21'1512.1
2015-May-13 21:13N 52°21' E 003°24'2412.7
2015-May-13 19:22N 52°43' E 003°38'1514.0
2015-May-13 18:18N 52°54' E 003°55'1114.3
2015-May-13 17:33N 53°01' E 004°07'1613.8
2015-May-13 16:24N 53°12' E 004°27'1613.5
2015-May-13 15:13N 53°27' E 004°35'913.0
2015-May-13 14:29N 53°36' E 004°40'1212.9
2015-May-13 13:32N 53°48' E 004°46'1212.3
2015-May-13 12:33N 53°60' E 004°52'1212.2
2015-May-13 11:33N 54°11' E 004°58'27711.1
2015-May-12 10:27N 57°49' E 010°06'1112.2
2015-May-12 09:33N 57°50' E 010°26'  

Dump ship's entire track history